sensor_id;sensor_type;location;lat;lon;timestamp;P1;durP1;ratioP1;P2;durP2;ratioP2
18196;SDS011;9224;52.422;13.024;2023-11-21T00:00:41;198.07;;;124.03;;
18196;SDS011;9224;52.422;13.024;2023-11-21T00:03:07;185.53;;;121.97;;
18196;SDS011;9224;52.422;13.024;2023-11-21T00:05:36;171.63;;;118.37;;
18196;SDS011;9224;52.422;13.024;2023-11-21T00:08:03;176.00;;;120.43;;
18196;SDS011;9224;52.422;13.024;2023-11-21T00:10:32;176.00;;;120.20;;
18196;SDS011;9224;52.422;13.024;2023-11-21T00:12:58;184.20;;;121.37;;
18196;SDS011;9224;52.422;13.024;2023-11-21T00:15:27;196.97;;;123.90;;
18196;SDS011;9224;52.422;13.024;2023-11-21T00:17:53;194.40;;;123.00;;
18196;SDS011;9224;52.422;13.024;2023-11-21T00:20:20;208.70;;;126.37;;
18196;SDS011;9224;52.422;13.024;2023-11-21T00:22:47;170.57;;;118.93;;
18196;SDS011;9224;52.422;13.024;2023-11-21T00:25:14;181.93;;;120.87;;
18196;SDS011;9224;52.422;13.024;2023-11-21T00:27:43;214.73;;;127.07;;
18196;SDS011;9224;52.422;13.024;2023-11-21T00:30:11;213.03;;;125.90;;
18196;SDS011;9224;52.422;13.024;2023-11-21T00:32:38;188.47;;;121.10;;
18196;SDS011;9224;52.422;13.024;2023-11-21T00:35:05;179.00;;;120.30;;
18196;SDS011;9224;52.422;13.024;2023-11-21T00:37:32;205.13;;;126.00;;
18196;SDS011;9224;52.422;13.024;2023-11-21T00:39:58;172.23;;;118.97;;
18196;SDS011;9224;52.422;13.024;2023-11-21T00:42:25;216.63;;;127.53;;
18196;SDS011;9224;52.422;13.024;2023-11-21T00:44:54;176.10;;;120.53;;
18196;SDS011;9224;52.422;13.024;2023-11-21T00:47:20;182.57;;;122.23;;
18196;SDS011;9224;52.422;13.024;2023-11-21T00:49:47;178.03;;;122.33;;
18196;SDS011;9224;52.422;13.024;2023-11-21T00:52:14;184.97;;;124.23;;
18196;SDS011;9224;52.422;13.024;2023-11-21T00:54:41;234.63;;;131.77;;
18196;SDS011;9224;52.422;13.024;2023-11-21T00:57:08;199.97;;;124.77;;
18196;SDS011;9224;52.422;13.024;2023-11-21T00:59:36;178.10;;;122.97;;
18196;SDS011;9224;52.422;13.024;2023-11-21T01:02:04;209.50;;;127.63;;
18196;SDS011;9224;52.422;13.024;2023-11-21T01:04:35;187.63;;;124.93;;
18196;SDS011;9224;52.422;13.024;2023-11-21T01:07:01;195.43;;;126.50;;
18196;SDS011;9224;52.422;13.024;2023-11-21T01:09:28;236.20;;;132.13;;
18196;SDS011;9224;52.422;13.024;2023-11-21T01:11:55;186.40;;;124.17;;
18196;SDS011;9224;52.422;13.024;2023-11-21T01:14:22;246.33;;;134.87;;
18196;SDS011;9224;52.422;13.024;2023-11-21T01:16:48;213.03;;;127.93;;
18196;SDS011;9224;52.422;13.024;2023-11-21T01:19:16;202.17;;;127.97;;
18196;SDS011;9224;52.422;13.024;2023-11-21T01:21:43;195.83;;;125.47;;
18196;SDS011;9224;52.422;13.024;2023-11-21T01:24:09;195.20;;;125.30;;
18196;SDS011;9224;52.422;13.024;2023-11-21T01:26:36;197.13;;;125.10;;
18196;SDS011;9224;52.422;13.024;2023-11-21T01:29:03;184.43;;;123.47;;
18196;SDS011;9224;52.422;13.024;2023-11-21T01:31:30;213.20;;;128.53;;
18196;SDS011;9224;52.422;13.024;2023-11-21T01:33:56;199.17;;;125.77;;
18196;SDS011;9224;52.422;13.024;2023-11-21T01:36:30;212.27;;;127.50;;
18196;SDS011;9224;52.422;13.024;2023-11-21T01:38:58;201.33;;;126.33;;
18196;SDS011;9224;52.422;13.024;2023-11-21T01:41:25;198.50;;;126.00;;
18196;SDS011;9224;52.422;13.024;2023-11-21T01:43:53;199.70;;;127.00;;
18196;SDS011;9224;52.422;13.024;2023-11-21T01:46:20;206.47;;;127.23;;
18196;SDS011;9224;52.422;13.024;2023-11-21T01:48:47;205.43;;;125.67;;
18196;SDS011;9224;52.422;13.024;2023-11-21T01:51:14;222.93;;;130.43;;
18196;SDS011;9224;52.422;13.024;2023-11-21T01:53:42;190.97;;;125.00;;
18196;SDS011;9224;52.422;13.024;2023-11-21T01:56:11;244.10;;;133.17;;
18196;SDS011;9224;52.422;13.024;2023-11-21T01:58:38;233.17;;;131.53;;
18196;SDS011;9224;52.422;13.024;2023-11-21T02:01:05;301.13;;;142.97;;
18196;SDS011;9224;52.422;13.024;2023-11-21T02:03:32;309.60;;;143.53;;
18196;SDS011;9224;52.422;13.024;2023-11-21T02:05:59;377.50;;;157.10;;
18196;SDS011;9224;52.422;13.024;2023-11-21T02:08:25;319.83;;;146.87;;
18196;SDS011;9224;52.422;13.024;2023-11-21T02:10:53;261.93;;;136.13;;
18196;SDS011;9224;52.422;13.024;2023-11-21T02:13:20;236.20;;;133.70;;
18196;SDS011;9224;52.422;13.024;2023-11-21T02:15:46;229.27;;;133.27;;
18196;SDS011;9224;52.422;13.024;2023-11-21T02:18:17;304.30;;;143.87;;
18196;SDS011;9224;52.422;13.024;2023-11-21T02:20:44;223.43;;;132.43;;
18196;SDS011;9224;52.422;13.024;2023-11-21T02:23:13;243.73;;;134.97;;
18196;SDS011;9224;52.422;13.024;2023-11-21T02:25:39;225.07;;;131.63;;
18196;SDS011;9224;52.422;13.024;2023-11-21T02:28:07;230.87;;;133.80;;
18196;SDS011;9224;52.422;13.024;2023-11-21T02:30:36;285.07;;;139.90;;
18196;SDS011;9224;52.422;13.024;2023-11-21T02:33:03;233.33;;;132.67;;
18196;SDS011;9224;52.422;13.024;2023-11-21T02:35:31;262.17;;;137.73;;
18196;SDS011;9224;52.422;13.024;2023-11-21T02:37:58;306.40;;;143.40;;
18196;SDS011;9224;52.422;13.024;2023-11-21T02:40:25;288.77;;;141.80;;
18196;SDS011;9224;52.422;13.024;2023-11-21T02:42:52;227.80;;;131.40;;
18196;SDS011;9224;52.422;13.024;2023-11-21T02:45:20;314.87;;;144.60;;
18196;SDS011;9224;52.422;13.024;2023-11-21T02:47:47;379.87;;;158.90;;
18196;SDS011;9224;52.422;13.024;2023-11-21T02:50:15;226.63;;;132.10;;
18196;SDS011;9224;52.422;13.024;2023-11-21T02:52:44;228.67;;;130.67;;
18196;SDS011;9224;52.422;13.024;2023-11-21T02:55:11;225.20;;;131.80;;
18196;SDS011;9224;52.422;13.024;2023-11-21T02:57:38;267.67;;;137.47;;
18196;SDS011;9224;52.422;13.024;2023-11-21T03:00:06;226.57;;;131.17;;
18196;SDS011;9224;52.422;13.024;2023-11-21T03:02:33;258.33;;;135.63;;
18196;SDS011;9224;52.422;13.024;2023-11-21T03:05:01;239.77;;;133.03;;
18196;SDS011;9224;52.422;13.024;2023-11-21T03:07:30;235.97;;;131.33;;
18196;SDS011;9224;52.422;13.024;2023-11-21T03:09:56;252.80;;;134.37;;
18196;SDS011;9224;52.422;13.024;2023-11-21T03:12:23;222.37;;;130.57;;
18196;SDS011;9224;52.422;13.024;2023-11-21T03:14:52;225.63;;;129.83;;
18196;SDS011;9224;52.422;13.024;2023-11-21T03:17:19;209.00;;;127.73;;
18196;SDS011;9224;52.422;13.024;2023-11-21T03:19:46;208.37;;;128.77;;
18196;SDS011;9224;52.422;13.024;2023-11-21T03:22:12;213.57;;;128.47;;
18196;SDS011;9224;52.422;13.024;2023-11-21T03:24:39;200.63;;;127.03;;
18196;SDS011;9224;52.422;13.024;2023-11-21T03:27:06;234.43;;;131.30;;
18196;SDS011;9224;52.422;13.024;2023-11-21T03:29:33;202.90;;;127.20;;
18196;SDS011;9224;52.422;13.024;2023-11-21T03:32:01;234.83;;;132.93;;
18196;SDS011;9224;52.422;13.024;2023-11-21T03:34:27;189.53;;;125.70;;
18196;SDS011;9224;52.422;13.024;2023-11-21T03:36:54;243.57;;;132.50;;
18196;SDS011;9224;52.422;13.024;2023-11-21T03:39:21;254.00;;;133.70;;
18196;SDS011;9224;52.422;13.024;2023-11-21T03:41:48;245.60;;;134.10;;
18196;SDS011;9224;52.422;13.024;2023-11-21T03:44:14;240.93;;;135.00;;
18196;SDS011;9224;52.422;13.024;2023-11-21T03:46:42;212.63;;;129.23;;
18196;SDS011;9224;52.422;13.024;2023-11-21T03:49:10;273.40;;;139.60;;
18196;SDS011;9224;52.422;13.024;2023-11-21T03:51:37;220.20;;;130.63;;
18196;SDS011;9224;52.422;13.024;2023-11-21T03:54:04;229.50;;;131.83;;
18196;SDS011;9224;52.422;13.024;2023-11-21T03:56:30;243.13;;;133.83;;
18196;SDS011;9224;52.422;13.024;2023-11-21T03:58:57;229.10;;;130.80;;
18196;SDS011;9224;52.422;13.024;2023-11-21T04:01:24;236.50;;;133.27;;
18196;SDS011;9224;52.422;13.024;2023-11-21T04:03:51;222.47;;;131.20;;
18196;SDS011;9224;52.422;13.024;2023-11-21T04:06:19;203.27;;;128.00;;
18196;SDS011;9224;52.422;13.024;2023-11-21T04:08:46;196.77;;;127.43;;
18196;SDS011;9224;52.422;13.024;2023-11-21T04:11:12;199.07;;;126.37;;
18196;SDS011;9224;52.422;13.024;2023-11-21T04:13:39;201.73;;;127.80;;
18196;SDS011;9224;52.422;13.024;2023-11-21T04:16:07;192.53;;;126.83;;
18196;SDS011;9224;52.422;13.024;2023-11-21T04:18:35;192.10;;;125.57;;
18196;SDS011;9224;52.422;13.024;2023-11-21T04:21:02;195.83;;;126.67;;
18196;SDS011;9224;52.422;13.024;2023-11-21T04:23:30;184.57;;;124.77;;
18196;SDS011;9224;52.422;13.024;2023-11-21T04:25:57;187.67;;;125.23;;
18196;SDS011;9224;52.422;13.024;2023-11-21T04:28:24;180.23;;;124.47;;
18196;SDS011;9224;52.422;13.024;2023-11-21T04:30:50;189.27;;;125.93;;
18196;SDS011;9224;52.422;13.024;2023-11-21T04:33:17;175.30;;;124.23;;
18196;SDS011;9224;52.422;13.024;2023-11-21T04:35:44;186.43;;;125.77;;
18196;SDS011;9224;52.422;13.024;2023-11-21T04:38:11;168.47;;;122.50;;
18196;SDS011;9224;52.422;13.024;2023-11-21T04:40:39;169.50;;;122.60;;
18196;SDS011;9224;52.422;13.024;2023-11-21T04:43:06;173.07;;;123.00;;
18196;SDS011;9224;52.422;13.024;2023-11-21T04:45:32;179.27;;;125.90;;
18196;SDS011;9224;52.422;13.024;2023-11-21T04:47:59;171.97;;;123.43;;
18196;SDS011;9224;52.422;13.024;2023-11-21T04:50:25;172.80;;;123.43;;
18196;SDS011;9224;52.422;13.024;2023-11-21T04:52:52;176.53;;;124.40;;
18196;SDS011;9224;52.422;13.024;2023-11-21T04:55:19;178.27;;;122.77;;
18196;SDS011;9224;52.422;13.024;2023-11-21T04:57:47;172.03;;;123.60;;
18196;SDS011;9224;52.422;13.024;2023-11-21T05:00:14;173.03;;;123.77;;
18196;SDS011;9224;52.422;13.024;2023-11-21T05:02:41;176.10;;;123.87;;
18196;SDS011;9224;52.422;13.024;2023-11-21T05:05:09;179.00;;;125.97;;
18196;SDS011;9224;52.422;13.024;2023-11-21T05:07:36;180.00;;;124.10;;
18196;SDS011;9224;52.422;13.024;2023-11-21T05:10:03;182.83;;;125.33;;
18196;SDS011;9224;52.422;13.024;2023-11-21T05:12:33;183.03;;;127.87;;
18196;SDS011;9224;52.422;13.024;2023-11-21T05:15:03;184.97;;;126.57;;
18196;SDS011;9224;52.422;13.024;2023-11-21T05:17:34;180.40;;;125.13;;
18196;SDS011;9224;52.422;13.024;2023-11-21T05:20:01;187.97;;;126.47;;
18196;SDS011;9224;52.422;13.024;2023-11-21T05:22:29;184.90;;;125.87;;
18196;SDS011;9224;52.422;13.024;2023-11-21T05:24:55;184.20;;;124.93;;
18196;SDS011;9224;52.422;13.024;2023-11-21T05:27:24;189.83;;;126.77;;
18196;SDS011;9224;52.422;13.024;2023-11-21T05:29:50;191.47;;;127.20;;
18196;SDS011;9224;52.422;13.024;2023-11-21T05:32:19;188.30;;;127.43;;
18196;SDS011;9224;52.422;13.024;2023-11-21T05:34:45;184.43;;;125.67;;
18196;SDS011;9224;52.422;13.024;2023-11-21T05:37:12;184.97;;;126.13;;
18196;SDS011;9224;52.422;13.024;2023-11-21T05:39:38;169.73;;;123.10;;
18196;SDS011;9224;52.422;13.024;2023-11-21T05:42:05;172.43;;;123.77;;
18196;SDS011;9224;52.422;13.024;2023-11-21T05:44:34;175.50;;;124.07;;
18196;SDS011;9224;52.422;13.024;2023-11-21T05:47:01;173.37;;;124.00;;
18196;SDS011;9224;52.422;13.024;2023-11-21T05:49:30;183.63;;;126.20;;
18196;SDS011;9224;52.422;13.024;2023-11-21T05:51:57;170.23;;;122.87;;
18196;SDS011;9224;52.422;13.024;2023-11-21T05:54:24;174.73;;;127.17;;
18196;SDS011;9224;52.422;13.024;2023-11-21T05:56:51;175.97;;;126.03;;
18196;SDS011;9224;52.422;13.024;2023-11-21T05:59:18;181.63;;;128.03;;
18196;SDS011;9224;52.422;13.024;2023-11-21T06:01:45;182.57;;;127.47;;
18196;SDS011;9224;52.422;13.024;2023-11-21T06:04:12;182.83;;;126.17;;
18196;SDS011;9224;52.422;13.024;2023-11-21T06:06:41;185.60;;;127.10;;
18196;SDS011;9224;52.422;13.024;2023-11-21T06:09:07;180.43;;;123.93;;
18196;SDS011;9224;52.422;13.024;2023-11-21T06:11:34;184.33;;;125.93;;
18196;SDS011;9224;52.422;13.024;2023-11-21T06:14:01;183.90;;;124.43;;
18196;SDS011;9224;52.422;13.024;2023-11-21T06:16:27;179.20;;;124.60;;
18196;SDS011;9224;52.422;13.024;2023-11-21T06:18:54;183.83;;;126.07;;
18196;SDS011;9224;52.422;13.024;2023-11-21T06:21:21;183.33;;;126.50;;
18196;SDS011;9224;52.422;13.024;2023-11-21T06:23:49;178.03;;;124.43;;
18196;SDS011;9224;52.422;13.024;2023-11-21T06:26:15;180.43;;;125.97;;
18196;SDS011;9224;52.422;13.024;2023-11-21T06:28:42;182.43;;;124.77;;
18196;SDS011;9224;52.422;13.024;2023-11-21T06:31:08;179.60;;;125.30;;
18196;SDS011;9224;52.422;13.024;2023-11-21T06:33:35;180.77;;;125.43;;
18196;SDS011;9224;52.422;13.024;2023-11-21T06:36:02;185.40;;;125.70;;
18196;SDS011;9224;52.422;13.024;2023-11-21T06:38:29;182.00;;;124.97;;
18196;SDS011;9224;52.422;13.024;2023-11-21T06:40:58;188.40;;;126.60;;
18196;SDS011;9224;52.422;13.024;2023-11-21T06:43:27;187.47;;;126.60;;
18196;SDS011;9224;52.422;13.024;2023-11-21T06:45:54;198.60;;;127.33;;
18196;SDS011;9224;52.422;13.024;2023-11-21T06:48:20;201.77;;;128.83;;
18196;SDS011;9224;52.422;13.024;2023-11-21T06:50:47;182.57;;;124.73;;
18196;SDS011;9224;52.422;13.024;2023-11-21T06:53:16;181.83;;;123.80;;
18196;SDS011;9224;52.422;13.024;2023-11-21T06:55:43;186.23;;;125.37;;
18196;SDS011;9224;52.422;13.024;2023-11-21T06:58:11;180.93;;;124.63;;
18196;SDS011;9224;52.422;13.024;2023-11-21T07:00:39;180.33;;;124.30;;
18196;SDS011;9224;52.422;13.024;2023-11-21T07:03:06;184.90;;;124.23;;
18196;SDS011;9224;52.422;13.024;2023-11-21T07:05:33;183.73;;;124.90;;
18196;SDS011;9224;52.422;13.024;2023-11-21T07:07:59;188.03;;;125.43;;
18196;SDS011;9224;52.422;13.024;2023-11-21T07:10:29;189.70;;;125.20;;
18196;SDS011;9224;52.422;13.024;2023-11-21T07:12:56;186.03;;;124.63;;
18196;SDS011;9224;52.422;13.024;2023-11-21T07:15:24;184.07;;;123.37;;
18196;SDS011;9224;52.422;13.024;2023-11-21T07:17:51;181.10;;;123.97;;
18196;SDS011;9224;52.422;13.024;2023-11-21T07:20:19;174.63;;;120.93;;
18196;SDS011;9224;52.422;13.024;2023-11-21T07:22:46;176.63;;;121.23;;
18196;SDS011;9224;52.422;13.024;2023-11-21T07:25:13;177.93;;;122.00;;
18196;SDS011;9224;52.422;13.024;2023-11-21T07:27:39;179.97;;;122.63;;
18196;SDS011;9224;52.422;13.024;2023-11-21T07:30:06;192.37;;;124.93;;
18196;SDS011;9224;52.422;13.024;2023-11-21T07:32:36;177.03;;;122.23;;
18196;SDS011;9224;52.422;13.024;2023-11-21T07:35:04;177.83;;;122.20;;
18196;SDS011;9224;52.422;13.024;2023-11-21T07:37:33;172.87;;;121.87;;
18196;SDS011;9224;52.422;13.024;2023-11-21T07:39:59;176.03;;;121.77;;
18196;SDS011;9224;52.422;13.024;2023-11-21T07:42:26;179.97;;;122.47;;
18196;SDS011;9224;52.422;13.024;2023-11-21T07:44:53;181.30;;;122.63;;
18196;SDS011;9224;52.422;13.024;2023-11-21T07:47:19;181.80;;;122.93;;
18196;SDS011;9224;52.422;13.024;2023-11-21T07:49:47;178.23;;;121.90;;
18196;SDS011;9224;52.422;13.024;2023-11-21T07:52:14;176.03;;;120.97;;
18196;SDS011;9224;52.422;13.024;2023-11-21T07:54:41;175.53;;;120.93;;
18196;SDS011;9224;52.422;13.024;2023-11-21T07:57:08;173.50;;;120.97;;
18196;SDS011;9224;52.422;13.024;2023-11-21T07:59:37;175.10;;;121.23;;
18196;SDS011;9224;52.422;13.024;2023-11-21T08:02:04;170.77;;;119.43;;
18196;SDS011;9224;52.422;13.024;2023-11-21T08:04:30;199.77;;;125.40;;
18196;SDS011;9224;52.422;13.024;2023-11-21T08:06:59;197.80;;;125.03;;
18196;SDS011;9224;52.422;13.024;2023-11-21T08:09:25;187.30;;;123.23;;
18196;SDS011;9224;52.422;13.024;2023-11-21T08:11:52;194.67;;;124.93;;
18196;SDS011;9224;52.422;13.024;2023-11-21T08:14:19;201.03;;;124.47;;
18196;SDS011;9224;52.422;13.024;2023-11-21T08:16:46;194.30;;;123.97;;
18196;SDS011;9224;52.422;13.024;2023-11-21T08:19:13;196.40;;;123.17;;
18196;SDS011;9224;52.422;13.024;2023-11-21T08:21:39;195.07;;;123.57;;
18196;SDS011;9224;52.422;13.024;2023-11-21T08:24:08;180.63;;;122.13;;
18196;SDS011;9224;52.422;13.024;2023-11-21T08:26:37;184.53;;;122.77;;
18196;SDS011;9224;52.422;13.024;2023-11-21T08:29:21;185.03;;;121.33;;
18196;SDS011;9224;52.422;13.024;2023-11-21T08:31:48;191.67;;;123.33;;
18196;SDS011;9224;52.422;13.024;2023-11-21T08:34:15;202.30;;;124.13;;
18196;SDS011;9224;52.422;13.024;2023-11-21T08:36:44;189.70;;;122.83;;
18196;SDS011;9224;52.422;13.024;2023-11-21T08:39:20;184.97;;;121.93;;
18196;SDS011;9224;52.422;13.024;2023-11-21T08:41:49;185.83;;;121.17;;
18196;SDS011;9224;52.422;13.024;2023-11-21T08:44:15;184.80;;;121.00;;
18196;SDS011;9224;52.422;13.024;2023-11-21T08:46:49;177.00;;;120.93;;
18196;SDS011;9224;52.422;13.024;2023-11-21T08:49:16;182.43;;;120.97;;
18196;SDS011;9224;52.422;13.024;2023-11-21T08:51:43;177.20;;;119.90;;
18196;SDS011;9224;52.422;13.024;2023-11-21T08:54:10;173.97;;;118.80;;
18196;SDS011;9224;52.422;13.024;2023-11-21T08:56:38;191.40;;;122.00;;
18196;SDS011;9224;52.422;13.024;2023-11-21T08:59:05;177.03;;;119.30;;
18196;SDS011;9224;52.422;13.024;2023-11-21T09:01:33;183.03;;;120.23;;
18196;SDS011;9224;52.422;13.024;2023-11-21T09:03:59;175.90;;;118.60;;
18196;SDS011;9224;52.422;13.024;2023-11-21T09:06:26;177.27;;;119.87;;
18196;SDS011;9224;52.422;13.024;2023-11-21T09:08:52;173.77;;;118.63;;
18196;SDS011;9224;52.422;13.024;2023-11-21T09:11:19;172.57;;;119.00;;
18196;SDS011;9224;52.422;13.024;2023-11-21T09:13:47;180.17;;;120.17;;
18196;SDS011;9224;52.422;13.024;2023-11-21T09:16:14;180.40;;;120.43;;
18196;SDS011;9224;52.422;13.024;2023-11-21T09:18:41;180.40;;;120.13;;
18196;SDS011;9224;52.422;13.024;2023-11-21T09:21:07;176.33;;;120.17;;
18196;SDS011;9224;52.422;13.024;2023-11-21T09:23:35;176.93;;;119.67;;
18196;SDS011;9224;52.422;13.024;2023-11-21T09:26:02;181.97;;;120.00;;
18196;SDS011;9224;52.422;13.024;2023-11-21T09:28:28;172.30;;;118.57;;
18196;SDS011;9224;52.422;13.024;2023-11-21T09:30:56;180.10;;;119.50;;
18196;SDS011;9224;52.422;13.024;2023-11-21T09:33:23;177.03;;;119.70;;
18196;SDS011;9224;52.422;13.024;2023-11-21T09:35:50;177.90;;;119.10;;
18196;SDS011;9224;52.422;13.024;2023-11-21T09:38:17;178.00;;;119.23;;
18196;SDS011;9224;52.422;13.024;2023-11-21T09:40:44;185.67;;;120.67;;
18196;SDS011;9224;52.422;13.024;2023-11-21T09:43:13;173.30;;;118.47;;
18196;SDS011;9224;52.422;13.024;2023-11-21T09:45:43;177.90;;;119.50;;
18196;SDS011;9224;52.422;13.024;2023-11-21T09:48:13;175.03;;;118.67;;
18196;SDS011;9224;52.422;13.024;2023-11-21T09:50:41;169.33;;;118.50;;
18196;SDS011;9224;52.422;13.024;2023-11-21T09:53:12;186.23;;;121.50;;
18196;SDS011;9224;52.422;13.024;2023-11-21T09:55:42;176.90;;;119.80;;
18196;SDS011;9224;52.422;13.024;2023-11-21T09:58:09;175.53;;;118.87;;
18196;SDS011;9224;52.422;13.024;2023-11-21T10:00:37;179.87;;;119.80;;
18196;SDS011;9224;52.422;13.024;2023-11-21T10:03:06;175.97;;;119.33;;
18196;SDS011;9224;52.422;13.024;2023-11-21T10:05:34;176.80;;;119.10;;
18196;SDS011;9224;52.422;13.024;2023-11-21T10:08:01;181.43;;;120.10;;
18196;SDS011;9224;52.422;13.024;2023-11-21T10:10:31;177.13;;;119.77;;
18196;SDS011;9224;52.422;13.024;2023-11-21T10:13:00;171.33;;;118.80;;
18196;SDS011;9224;52.422;13.024;2023-11-21T10:15:29;171.30;;;118.17;;
18196;SDS011;9224;52.422;13.024;2023-11-21T10:17:59;173.73;;;119.00;;
18196;SDS011;9224;52.422;13.024;2023-11-21T10:20:31;187.23;;;121.17;;
18196;SDS011;9224;52.422;13.024;2023-11-21T10:23:00;169.53;;;118.17;;
18196;SDS011;9224;52.422;13.024;2023-11-21T10:25:28;168.20;;;118.03;;
18196;SDS011;9224;52.422;13.024;2023-11-21T10:27:57;169.23;;;117.83;;
18196;SDS011;9224;52.422;13.024;2023-11-21T10:30:27;170.67;;;118.20;;
18196;SDS011;9224;52.422;13.024;2023-11-21T10:32:58;171.60;;;118.13;;
18196;SDS011;9224;52.422;13.024;2023-11-21T10:35:33;176.50;;;119.33;;
18196;SDS011;9224;52.422;13.024;2023-11-21T10:38:06;173.87;;;118.80;;
18196;SDS011;9224;52.422;13.024;2023-11-21T10:40:37;173.30;;;118.93;;
18196;SDS011;9224;52.422;13.024;2023-11-21T10:43:07;177.37;;;119.40;;
18196;SDS011;9224;52.422;13.024;2023-11-21T10:45:35;178.10;;;119.43;;
18196;SDS011;9224;52.422;13.024;2023-11-21T10:48:04;176.57;;;120.43;;
18196;SDS011;9224;52.422;13.024;2023-11-21T10:50:33;178.23;;;120.20;;
18196;SDS011;9224;52.422;13.024;2023-11-21T10:53:01;179.27;;;121.17;;
18196;SDS011;9224;52.422;13.024;2023-11-21T10:55:30;178.13;;;120.00;;
18196;SDS011;9224;52.422;13.024;2023-11-21T10:57:58;179.67;;;121.23;;
18196;SDS011;9224;52.422;13.024;2023-11-21T11:00:27;180.70;;;121.47;;
18196;SDS011;9224;52.422;13.024;2023-11-21T11:02:54;180.97;;;120.60;;
18196;SDS011;9224;52.422;13.024;2023-11-21T11:05:21;176.43;;;120.97;;
18196;SDS011;9224;52.422;13.024;2023-11-21T11:07:50;180.47;;;121.50;;
18196;SDS011;9224;52.422;13.024;2023-11-21T11:10:22;181.37;;;121.97;;
18196;SDS011;9224;52.422;13.024;2023-11-21T11:12:53;182.87;;;121.57;;
18196;SDS011;9224;52.422;13.024;2023-11-21T11:15:23;181.57;;;120.73;;
18196;SDS011;9224;52.422;13.024;2023-11-21T11:17:51;181.40;;;120.23;;
18196;SDS011;9224;52.422;13.024;2023-11-21T11:20:22;181.20;;;120.77;;
18196;SDS011;9224;52.422;13.024;2023-11-21T11:22:50;186.20;;;121.13;;
18196;SDS011;9224;52.422;13.024;2023-11-21T11:25:33;183.43;;;121.30;;
18196;SDS011;9224;52.422;13.024;2023-11-21T11:28:06;185.43;;;121.43;;
18196;SDS011;9224;52.422;13.024;2023-11-21T11:30:40;183.00;;;120.70;;
18196;SDS011;9224;52.422;13.024;2023-11-21T11:33:14;184.07;;;120.90;;
18196;SDS011;9224;52.422;13.024;2023-11-21T11:35:49;186.30;;;121.60;;
18196;SDS011;9224;52.422;13.024;2023-11-21T11:38:20;186.57;;;121.87;;
18196;SDS011;9224;52.422;13.024;2023-11-21T11:40:48;186.57;;;121.33;;
18196;SDS011;9224;52.422;13.024;2023-11-21T11:43:25;186.13;;;121.63;;
18196;SDS011;9224;52.422;13.024;2023-11-21T11:45:55;188.43;;;121.43;;
18196;SDS011;9224;52.422;13.024;2023-11-21T11:48:24;193.40;;;122.30;;
18196;SDS011;9224;52.422;13.024;2023-11-21T11:53:43;192.30;;;123.23;;
18196;SDS011;9224;52.422;13.024;2023-11-21T11:56:23;193.37;;;125.57;;
18196;SDS011;9224;52.422;13.024;2023-11-21T11:58:54;196.60;;;125.00;;
18196;SDS011;9224;52.422;13.024;2023-11-21T12:01:22;197.33;;;125.43;;
18196;SDS011;9224;52.422;13.024;2023-11-21T12:06:56;188.90;;;122.47;;
18196;SDS011;9224;52.422;13.024;2023-11-21T12:09:25;190.57;;;123.60;;
18196;SDS011;9224;52.422;13.024;2023-11-21T12:11:52;198.73;;;125.20;;
18196;SDS011;9224;52.422;13.024;2023-11-21T12:14:23;196.40;;;124.00;;
18196;SDS011;9224;52.422;13.024;2023-11-21T12:16:49;193.03;;;122.70;;
18196;SDS011;9224;52.422;13.024;2023-11-21T12:19:16;197.50;;;124.33;;
18196;SDS011;9224;52.422;13.024;2023-11-21T12:21:43;192.60;;;122.40;;
18196;SDS011;9224;52.422;13.024;2023-11-21T12:24:10;198.77;;;124.70;;
18196;SDS011;9224;52.422;13.024;2023-11-21T12:26:38;197.77;;;123.93;;
18196;SDS011;9224;52.422;13.024;2023-11-21T12:29:05;194.23;;;122.53;;
18196;SDS011;9224;52.422;13.024;2023-11-21T12:31:34;192.27;;;123.27;;
18196;SDS011;9224;52.422;13.024;2023-11-21T12:34:01;199.17;;;124.00;;
18196;SDS011;9224;52.422;13.024;2023-11-21T12:36:28;193.07;;;123.23;;
18196;SDS011;9224;52.422;13.024;2023-11-21T12:38:55;193.00;;;123.23;;
18196;SDS011;9224;52.422;13.024;2023-11-21T12:41:22;196.90;;;124.40;;
18196;SDS011;9224;52.422;13.024;2023-11-21T12:43:49;191.33;;;123.73;;
18196;SDS011;9224;52.422;13.024;2023-11-21T12:46:15;192.00;;;123.27;;
18196;SDS011;9224;52.422;13.024;2023-11-21T12:48:44;195.13;;;123.07;;
18196;SDS011;9224;52.422;13.024;2023-11-21T12:51:11;191.20;;;122.23;;
18196;SDS011;9224;52.422;13.024;2023-11-21T12:53:39;190.50;;;122.70;;
18196;SDS011;9224;52.422;13.024;2023-11-21T12:56:06;191.00;;;122.23;;
18196;SDS011;9224;52.422;13.024;2023-11-21T12:58:34;187.53;;;121.53;;
18196;SDS011;9224;52.422;13.024;2023-11-21T13:01:01;182.80;;;119.73;;
18196;SDS011;9224;52.422;13.024;2023-11-21T13:03:29;186.17;;;120.10;;
18196;SDS011;9224;52.422;13.024;2023-11-21T13:05:57;190.10;;;120.43;;
18196;SDS011;9224;52.422;13.024;2023-11-21T13:08:24;203.10;;;123.87;;
18196;SDS011;9224;52.422;13.024;2023-11-21T13:10:53;186.67;;;120.10;;
18196;SDS011;9224;52.422;13.024;2023-11-21T13:13:21;185.43;;;120.80;;
18196;SDS011;9224;52.422;13.024;2023-11-21T13:15:49;184.50;;;120.70;;
18196;SDS011;9224;52.422;13.024;2023-11-21T13:18:17;188.60;;;121.47;;
18196;SDS011;9224;52.422;13.024;2023-11-21T13:20:46;187.13;;;121.47;;
18196;SDS011;9224;52.422;13.024;2023-11-21T13:23:14;188.77;;;122.30;;
18196;SDS011;9224;52.422;13.024;2023-11-21T13:25:42;185.80;;;121.50;;
18196;SDS011;9224;52.422;13.024;2023-11-21T13:28:10;187.37;;;121.13;;
18196;SDS011;9224;52.422;13.024;2023-11-21T13:30:37;184.60;;;121.17;;
18196;SDS011;9224;52.422;13.024;2023-11-21T13:33:05;203.50;;;125.07;;
18196;SDS011;9224;52.422;13.024;2023-11-21T13:35:33;186.40;;;123.03;;
18196;SDS011;9224;52.422;13.024;2023-11-21T13:38:03;188.33;;;123.73;;
18196;SDS011;9224;52.422;13.024;2023-11-21T13:40:33;185.37;;;122.77;;
18196;SDS011;9224;52.422;13.024;2023-11-21T13:43:07;190.33;;;123.13;;
18196;SDS011;9224;52.422;13.024;2023-11-21T13:45:35;183.30;;;121.23;;
18196;SDS011;9224;52.422;13.024;2023-11-21T13:48:02;183.50;;;122.20;;
18196;SDS011;9224;52.422;13.024;2023-11-21T13:50:31;184.23;;;121.23;;
18196;SDS011;9224;52.422;13.024;2023-11-21T13:52:59;181.37;;;121.13;;
18196;SDS011;9224;52.422;13.024;2023-11-21T13:55:35;191.73;;;122.87;;
18196;SDS011;9224;52.422;13.024;2023-11-21T13:58:02;185.53;;;121.43;;
18196;SDS011;9224;52.422;13.024;2023-11-21T14:00:34;185.27;;;121.30;;
18196;SDS011;9224;52.422;13.024;2023-11-21T14:03:11;186.53;;;123.20;;
18196;SDS011;9224;52.422;13.024;2023-11-21T14:05:45;190.50;;;123.87;;